Lincoln, Kansas
Current Conditions -  °F | °C
As of 7:53 AM on Thursday 27 Nov 2014 (Local Time) from KSLN Reporting Station
Clear Clear  
Wind Chill: 22°   Ceiling: Unl
Heat Index: 22°   Visibility: 10mi
Dew Point: 15°   Wind: 3mph
Humidity: 75%   Direction: 80°E
Pressure: 30.52"   Gusts: NA
Location:  39.04°N, 98.15°W
Report Text: KSLN 271353Z 08003KT 10SM CLR M06/M09 A3052 RMK AO2 SLP351 T10561094
Loading
Personal Weather Stations






























Interactive Weather Map New forecast layout! Learn more

10-Day Weather Forecast

Advertisements
Track Severe Weather on mobile